الصفحة الرئيسية
METAR-TAF:

METAR-TAF

مطار :

Loei, تايلاند

دائرة عرض: 17-27N, خط طول: 101-44E, ارتفاع: 253 متر

مراقبة الطقس الحالي

تاريخ ووقت الإصدار 58 دقيقة قبل الساعة 00:00UTC
رياح هادئة
درجة الحرارة 24°درجة مئوية
الرطوبة 94%
ضغط 1010 hPa
الرؤية: 4500 متر
غيوم متفرقة على ارتفاع 500 قدم
غشاء

METAR: VTUL 190000Z 00000KT 4500 BR SCT005 24/23 Q1010 BECMG TL0100 7000 BKN010

زمن: 07:58 (00:58 UTC)

توقعات

تاريخ ووقت الإصدار 1ساعة و 58 دقيقة قبل الساعة 23:00UTC
التوقعات صالحة من19 الساعة 00 UTC إلى 19 الساعة 24 UTC
ريح 5 عقدة من الشمال/الشمال الغربي
الرؤية: 4000 متر
غيوم متفرقة على ارتفاع 3000 قدم
غشاء
أصبح
من 19 الساعة 01 UTC إلى 19 الساعة 03 UTC
الرؤية: 9000 متر
مؤقت
من 19 الساعة 07 UTC إلى 19 الساعة 13 UTC
ريح 15 عقدةمن اتجاهات متغيرة
الرؤية: 4500 متر
غيوم قليلة على ارتفاع 1800 قدم, مزنة ركامية.
غيوم مفككة على ارتفاع 2000 قدم
غيوم مفككة على ارتفاع 8000 قدم
عاصفة رعدية, مطر

TAF: VTUL 182300Z 1900/1924 33005KT 4000 BR SCT030 BECMG 1901/1903 9000 NSW TEMPO 1907/1913 VRB15KT 4500 TSRA FEW018CB BKN020 BKN080

أرصاد الطقس والتوقعات من أكثر من 4000 مطار (تقارير الطقس للمطار METAR والتنبؤ بالطقس بالمطارTAF).

المحطات المتاحة هي النقط الصفراء والحمراء على الخريطة.

حرك المؤشر فوق النقطة لمعرفة اسم المحطة.

ثم انقر لمعرفة أرصاد وتوقعات الطقس.

لتغيير الخارطة: اضغط على الأزرار الخضراء مع رمز الصليب الأسود للتكبير. على الزر الأخضر مع شرطة للتصغير، أو على الأسهم الخضراء للخرائط المجاورة.


METAR-TAF: